NOZ9846 LIRF-LIMC
Flight info
| Callsign | NOZ9846 |
|---|---|
| Flight time | 0h 51m |
| Altitude | 32000 |
| Route | NEMBO DCT UPDIN DCT SPEZI DCT IDONA DCT MEBUR |
| Aircraft | MD82/M-SDFGIRWY/C |
Departure
| Time | 2026-05-07 09:40 |
|---|---|
| Airport | Rome–Fiumicino Leonardo da Vinci International Airport (LIRF) |
Arrival
| Time | 2026-05-07 10:32 |
|---|---|
| Airport | Milan Malpensa International Airport (LIMC) |
| Time | Latitude | Longitude | Altitude | Speed | Heading |
|---|---|---|---|---|---|
| 2026-05-07 09:14 | 41.79560 | 12.25733 | 19 ft | 0 kts | 116° |
| 2026-05-07 09:25 | 41.79560 | 12.25732 | 18 ft | 0 kts | 116° |
| 2026-05-07 09:27 | 41.79562 | 12.25725 | 18 ft | 2 kts | 116° |
| 2026-05-07 09:27 | 41.79575 | 12.25689 | 17 ft | 2 kts | 116° |
| 2026-05-07 09:28 | 41.79582 | 12.25671 | 17 ft | 2 kts | 116° |
| 2026-05-07 09:28 | 41.79588 | 12.25656 | 17 ft | 0 kts | 116° |
| 2026-05-07 09:28 | 41.79585 | 12.25667 | 17 ft | 3 kts | 96° |
| 2026-05-07 09:28 | 41.79593 | 12.25694 | 17 ft | 3 kts | 42° |
| 2026-05-07 09:29 | 41.79610 | 12.25705 | 18 ft | 0 kts | 22° |
| 2026-05-07 09:29 | 41.79611 | 12.25705 | 18 ft | 0 kts | 22° |
| 2026-05-07 09:32 | 41.79654 | 12.25729 | 17 ft | 14 kts | 23° |
| 2026-05-07 09:33 | 41.79786 | 12.25812 | 17 ft | 27 kts | 24° |
| 2026-05-07 09:33 | 41.80002 | 12.25904 | 14 ft | 37 kts | 24° |
| 2026-05-07 09:33 | 41.80211 | 12.26032 | 14 ft | 28 kts | 24° |
| 2026-05-07 09:33 | 41.80360 | 12.26165 | 14 ft | 25 kts | 61° |
| 2026-05-07 09:34 | 41.80427 | 12.26401 | 11 ft | 26 kts | 69° |
| 2026-05-07 09:34 | 41.80488 | 12.26619 | 9 ft | 24 kts | 69° |
| 2026-05-07 09:34 | 41.80543 | 12.26820 | 8 ft | 21 kts | 70° |
| 2026-05-07 09:34 | 41.80590 | 12.26987 | 8 ft | 13 kts | 59° |
| 2026-05-07 09:35 | 41.80659 | 12.27043 | 8 ft | 7 kts | 9° |
| 2026-05-07 09:35 | 41.80670 | 12.27045 | 8 ft | 0 kts | 5° |
| 2026-05-07 09:36 | 41.80715 | 12.27050 | 8 ft | 11 kts | 5° |
| 2026-05-07 09:36 | 41.80783 | 12.27050 | 8 ft | 8 kts | 344° |
| 2026-05-07 09:36 | 41.80835 | 12.27027 | 8 ft | 6 kts | 340° |
| 2026-05-07 09:37 | 41.80863 | 12.27013 | 8 ft | 1 kts | 339° |
| 2026-05-07 09:37 | 41.80864 | 12.27013 | 8 ft | 0 kts | 339° |
| 2026-05-07 09:38 | 41.80864 | 12.27012 | 8 ft | 0 kts | 339° |
| 2026-05-07 09:38 | 41.80890 | 12.26999 | 9 ft | 8 kts | 339° |
| 2026-05-07 09:38 | 41.80949 | 12.26934 | 9 ft | 12 kts | 277° |
| 2026-05-07 09:38 | 41.80942 | 12.26873 | 8 ft | 0 kts | 249° |
| 2026-05-07 09:39 | 41.80916 | 12.26780 | 8 ft | 30 kts | 250° |
| 2026-05-07 09:40 | 41.80751 | 12.26182 | 12 ft | 105 kts | 249° |
| 2026-05-07 09:40 | 41.80418 | 12.24983 | 15 ft | 166 kts | 250° |
| 2026-05-07 09:40 | 41.80012 | 12.23489 | 595 ft | 174 kts | 250° |
| 2026-05-07 09:40 | 41.79560 | 12.22025 | 1409 ft | 172 kts | 246° |
| 2026-05-07 09:41 | 41.79179 | 12.20530 | 2143 ft | 173 kts | 265° |
| 2026-05-07 09:41 | 41.79151 | 12.18972 | 2923 ft | 168 kts | 267° |
| 2026-05-07 09:41 | 41.79126 | 12.17429 | 3560 ft | 164 kts | 267° |
| 2026-05-07 09:41 | 41.79098 | 12.15914 | 4007 ft | 169 kts | 268° |
| 2026-05-07 09:42 | 41.79067 | 12.14300 | 4496 ft | 179 kts | 267° |
| 2026-05-07 09:42 | 41.79033 | 12.12609 | 5064 ft | 187 kts | 267° |
| 2026-05-07 09:42 | 41.78995 | 12.10788 | 5515 ft | 204 kts | 267° |
| 2026-05-07 09:42 | 41.78970 | 12.08828 | 5960 ft | 222 kts | 269° |
| 2026-05-07 09:43 | 41.78973 | 12.06668 | 6398 ft | 241 kts | 269° |
| 2026-05-07 09:43 | 41.78975 | 12.04334 | 6827 ft | 260 kts | 269° |
| 2026-05-07 09:43 | 41.78976 | 12.01808 | 7287 ft | 278 kts | 269° |
| 2026-05-07 09:43 | 41.78977 | 11.99317 | 8175 ft | 272 kts | 269° |
| 2026-05-07 09:44 | 41.78978 | 11.96758 | 8799 ft | 276 kts | 269° |
| 2026-05-07 09:44 | 41.78978 | 11.94207 | 9542 ft | 276 kts | 269° |
| 2026-05-07 09:44 | 41.78979 | 11.91646 | 10169 ft | 279 kts | 269° |
| 2026-05-07 09:44 | 41.78979 | 11.88953 | 10291 ft | 301 kts | 269° |
| 2026-05-07 09:45 | 41.78980 | 11.86072 | 10373 ft | 323 kts | 269° |
| 2026-05-07 09:45 | 41.78975 | 11.83024 | 10950 ft | 328 kts | 269° |
| 2026-05-07 09:45 | 41.78962 | 11.79957 | 11535 ft | 331 kts | 269° |
| 2026-05-07 09:45 | 41.78946 | 11.76886 | 12131 ft | 334 kts | 269° |
| 2026-05-07 09:46 | 41.78931 | 11.73776 | 12772 ft | 335 kts | 268° |
| 2026-05-07 09:46 | 41.78914 | 11.70685 | 13343 ft | 337 kts | 268° |
| 2026-05-07 09:46 | 41.78898 | 11.67526 | 13882 ft | 340 kts | 268° |
| 2026-05-07 09:46 | 41.78882 | 11.64375 | 14438 ft | 342 kts | 268° |
| 2026-05-07 09:47 | 41.78866 | 11.61201 | 14998 ft | 344 kts | 268° |
| 2026-05-07 09:47 | 41.78898 | 11.57994 | 15503 ft | 348 kts | 275° |
| 2026-05-07 09:47 | 41.79480 | 11.54833 | 15985 ft | 355 kts | 289° |
| 2026-05-07 09:47 | 41.80653 | 11.51898 | 16546 ft | 360 kts | 302° |
| 2026-05-07 09:48 | 41.82329 | 11.49335 | 16953 ft | 368 kts | 309° |
| 2026-05-07 09:48 | 41.84039 | 11.46837 | 17467 ft | 369 kts | 309° |
| 2026-05-07 09:48 | 41.85777 | 11.44277 | 17999 ft | 370 kts | 308° |
| 2026-05-07 09:48 | 41.87497 | 11.41714 | 18356 ft | 375 kts | 308° |
| 2026-05-07 09:49 | 41.89234 | 11.39096 | 18836 ft | 376 kts | 308° |
| 2026-05-07 09:49 | 41.90952 | 11.36497 | 19310 ft | 377 kts | 307° |
| 2026-05-07 09:49 | 41.92697 | 11.33836 | 19715 ft | 381 kts | 307° |
| 2026-05-07 09:49 | 41.94435 | 11.31182 | 20210 ft | 381 kts | 306° |
| 2026-05-07 09:50 | 41.96191 | 11.28486 | 20557 ft | 386 kts | 306° |
| 2026-05-07 09:50 | 41.97957 | 11.25774 | 21020 ft | 387 kts | 306° |
| 2026-05-07 09:50 | 41.99721 | 11.23054 | 21410 ft | 390 kts | 306° |
| 2026-05-07 09:50 | 42.01513 | 11.20291 | 21823 ft | 391 kts | 306° |
| 2026-05-07 09:51 | 42.03285 | 11.17560 | 22182 ft | 394 kts | 306° |
| 2026-05-07 09:51 | 42.05094 | 11.14765 | 22583 ft | 396 kts | 306° |
| 2026-05-07 09:51 | 42.06899 | 11.11979 | 22950 ft | 398 kts | 306° |
| 2026-05-07 09:51 | 42.08718 | 11.09168 | 23263 ft | 401 kts | 306° |
| 2026-05-07 09:52 | 42.10556 | 11.06333 | 23673 ft | 402 kts | 306° |
| 2026-05-07 09:52 | 42.12380 | 11.03516 | 24070 ft | 402 kts | 306° |
| 2026-05-07 09:52 | 42.14208 | 11.00696 | 24403 ft | 405 kts | 305° |
| 2026-05-07 09:52 | 42.16066 | 10.97826 | 24811 ft | 404 kts | 306° |
| 2026-05-07 09:53 | 42.17919 | 10.94971 | 25209 ft | 405 kts | 305° |
| 2026-05-07 09:53 | 42.19758 | 10.92132 | 25475 ft | 408 kts | 305° |
| 2026-05-07 09:53 | 42.21625 | 10.89255 | 25902 ft | 407 kts | 305° |
| 2026-05-07 09:53 | 42.23475 | 10.86398 | 26187 ft | 409 kts | 305° |
| 2026-05-07 09:54 | 42.25355 | 10.83504 | 26462 ft | 412 kts | 304° |
| 2026-05-07 09:54 | 42.27262 | 10.80610 | 26821 ft | 414 kts | 308° |
| 2026-05-07 09:54 | 42.29378 | 10.77954 | 27342 ft | 415 kts | 313° |
| 2026-05-07 09:54 | 42.31677 | 10.75607 | 27665 ft | 422 kts | 320° |
| 2026-05-07 09:55 | 42.34197 | 10.73560 | 28134 ft | 423 kts | 323° |
| 2026-05-07 09:55 | 42.36741 | 10.71588 | 28521 ft | 422 kts | 322° |
| 2026-05-07 09:55 | 42.39280 | 10.69605 | 28913 ft | 421 kts | 322° |
| 2026-05-07 09:55 | 42.41805 | 10.67618 | 29323 ft | 419 kts | 322° |
| 2026-05-07 09:56 | 42.44300 | 10.65650 | 29718 ft | 417 kts | 321° |
| 2026-05-07 09:56 | 42.46800 | 10.63666 | 30121 ft | 415 kts | 321° |
| 2026-05-07 09:56 | 42.49258 | 10.61712 | 30517 ft | 413 kts | 321° |
| 2026-05-07 09:56 | 42.51748 | 10.59728 | 30797 ft | 413 kts | 321° |
| 2026-05-07 09:57 | 42.54229 | 10.57747 | 31089 ft | 413 kts | 321° |
| 2026-05-07 09:57 | 42.56698 | 10.55775 | 31369 ft | 412 kts | 321° |
| 2026-05-07 09:57 | 42.59188 | 10.53785 | 31670 ft | 411 kts | 321° |
| 2026-05-07 09:57 | 42.61657 | 10.51812 | 31994 ft | 411 kts | 321° |
| 2026-05-07 09:58 | 42.64130 | 10.49829 | 31995 ft | 420 kts | 321° |
| 2026-05-07 09:58 | 42.69288 | 10.45697 | 32002 ft | 435 kts | 321° |
| 2026-05-07 09:59 | 42.74534 | 10.41504 | 31999 ft | 435 kts | 321° |
| 2026-05-07 09:59 | 42.79698 | 10.37379 | 32006 ft | 429 kts | 321° |
| 2026-05-07 10:00 | 42.84850 | 10.33256 | 32011 ft | 431 kts | 321° |
| 2026-05-07 10:00 | 42.90002 | 10.29138 | 32008 ft | 432 kts | 321° |
| 2026-05-07 10:01 | 42.95185 | 10.24996 | 32002 ft | 431 kts | 321° |
| 2026-05-07 10:01 | 43.00310 | 10.20898 | 32011 ft | 430 kts | 321° |
| 2026-05-07 10:02 | 43.05487 | 10.16756 | 32003 ft | 430 kts | 321° |
| 2026-05-07 10:02 | 43.10588 | 10.12607 | 32015 ft | 429 kts | 321° |
| 2026-05-07 10:03 | 43.15710 | 10.08433 | 32004 ft | 428 kts | 321° |
| 2026-05-07 10:03 | 43.20879 | 10.04217 | 32012 ft | 437 kts | 321° |
| 2026-05-07 10:04 | 43.26183 | 9.99885 | 32008 ft | 449 kts | 321° |
| 2026-05-07 10:04 | 43.31587 | 9.95477 | 32006 ft | 457 kts | 321° |
| 2026-05-07 10:05 | 43.37085 | 9.90994 | 32004 ft | 457 kts | 322° |
| 2026-05-07 10:05 | 43.42522 | 9.86683 | 32007 ft | 452 kts | 323° |
| 2026-05-07 10:06 | 43.48015 | 9.82403 | 32008 ft | 452 kts | 323° |
| 2026-05-07 10:06 | 43.53489 | 9.78156 | 32000 ft | 454 kts | 323° |
| 2026-05-07 10:07 | 43.58963 | 9.73918 | 31999 ft | 453 kts | 323° |
| 2026-05-07 10:07 | 43.64434 | 9.69687 | 32002 ft | 453 kts | 323° |
| 2026-05-07 10:08 | 43.69919 | 9.65450 | 32000 ft | 452 kts | 323° |
| 2026-05-07 10:08 | 43.75407 | 9.61210 | 32002 ft | 453 kts | 323° |
| 2026-05-07 10:09 | 43.80878 | 9.56926 | 31998 ft | 451 kts | 323° |
| 2026-05-07 10:09 | 43.86306 | 9.52652 | 32005 ft | 450 kts | 323° |
| 2026-05-07 10:10 | 43.91760 | 9.48374 | 31998 ft | 451 kts | 323° |
| 2026-05-07 10:10 | 43.97254 | 9.44238 | 31989 ft | 454 kts | 329° |
| 2026-05-07 10:11 | 44.03288 | 9.41368 | 31991 ft | 468 kts | 340° |
| 2026-05-07 10:11 | 44.09632 | 9.39325 | 31987 ft | 468 kts | 340° |
| 2026-05-07 10:12 | 44.15972 | 9.37242 | 31983 ft | 467 kts | 340° |
| 2026-05-07 10:12 | 44.22284 | 9.35143 | 31983 ft | 467 kts | 340° |
| 2026-05-07 10:13 | 44.28555 | 9.33046 | 31987 ft | 465 kts | 339° |
| 2026-05-07 10:13 | 44.34852 | 9.30936 | 31993 ft | 467 kts | 339° |
| 2026-05-07 10:14 | 44.41128 | 9.28829 | 31987 ft | 464 kts | 339° |
| 2026-05-07 10:14 | 44.47389 | 9.26727 | 31982 ft | 465 kts | 339° |
| 2026-05-07 10:15 | 44.53654 | 9.24620 | 31982 ft | 463 kts | 339° |
| 2026-05-07 10:15 | 44.59929 | 9.22512 | 31975 ft | 464 kts | 339° |
| 2026-05-07 10:16 | 44.66209 | 9.20401 | 31727 ft | 466 kts | 339° |
| 2026-05-07 10:16 | 44.69375 | 9.19337 | 31280 ft | 468 kts | 340° |
| 2026-05-07 10:16 | 44.72465 | 9.18006 | 30671 ft | 456 kts | 329° |
| 2026-05-07 10:16 | 44.75169 | 9.15948 | 29616 ft | 446 kts | 319° |
| 2026-05-07 10:17 | 44.77511 | 9.13169 | 28513 ft | 436 kts | 309° |
| 2026-05-07 10:17 | 44.79380 | 9.09911 | 27488 ft | 427 kts | 300° |
| 2026-05-07 10:17 | 44.80811 | 9.06354 | 26477 ft | 422 kts | 296° |
| 2026-05-07 10:17 | 44.82218 | 9.02769 | 25439 ft | 421 kts | 296° |
| 2026-05-07 10:18 | 44.83638 | 8.99180 | 24366 ft | 419 kts | 297° |
| 2026-05-07 10:18 | 44.85063 | 8.95619 | 23247 ft | 418 kts | 298° |
| 2026-05-07 10:18 | 44.86476 | 8.92121 | 22106 ft | 416 kts | 298° |
| 2026-05-07 10:18 | 44.87906 | 8.88594 | 20949 ft | 415 kts | 298° |
| 2026-05-07 10:19 | 44.89330 | 8.85098 | 19822 ft | 413 kts | 299° |
| 2026-05-07 10:19 | 44.90753 | 8.81616 | 18690 ft | 410 kts | 299° |
| 2026-05-07 10:19 | 44.92162 | 8.78179 | 17690 ft | 405 kts | 299° |
| 2026-05-07 10:19 | 44.93546 | 8.74814 | 16720 ft | 400 kts | 299° |
| 2026-05-07 10:20 | 44.94925 | 8.71467 | 15750 ft | 396 kts | 299° |
| 2026-05-07 10:20 | 44.96299 | 8.68134 | 14768 ft | 392 kts | 300° |
| 2026-05-07 10:20 | 44.97661 | 8.64828 | 13811 ft | 389 kts | 299° |
| 2026-05-07 10:20 | 44.99215 | 8.61789 | 12839 ft | 387 kts | 312° |
| 2026-05-07 10:21 | 45.01221 | 8.59343 | 11917 ft | 385 kts | 325° |
| 2026-05-07 10:21 | 45.03575 | 8.57640 | 10981 ft | 383 kts | 339° |
| 2026-05-07 10:21 | 45.06161 | 8.56758 | 10029 ft | 381 kts | 351° |
| 2026-05-07 10:21 | 45.08733 | 8.56304 | 9025 ft | 374 kts | 0° |
| 2026-05-07 10:22 | 45.11247 | 8.56966 | 8046 ft | 365 kts | 22° |
| 2026-05-07 10:22 | 45.13374 | 8.58791 | 7097 ft | 356 kts | 43° |
| 2026-05-07 10:22 | 45.14932 | 8.61436 | 6305 ft | 349 kts | 58° |
| 2026-05-07 10:22 | 45.15940 | 8.64451 | 5864 ft | 335 kts | 74° |
| 2026-05-07 10:23 | 45.16636 | 8.67559 | 5446 ft | 324 kts | 72° |
| 2026-05-07 10:23 | 45.17321 | 8.70526 | 5019 ft | 315 kts | 72° |
| 2026-05-07 10:23 | 45.18005 | 8.73431 | 4592 ft | 308 kts | 72° |
| 2026-05-07 10:23 | 45.18682 | 8.76275 | 4220 ft | 300 kts | 72° |
| 2026-05-07 10:24 | 45.19331 | 8.78990 | 3967 ft | 288 kts | 73° |
| 2026-05-07 10:24 | 45.20107 | 8.81523 | 3928 ft | 269 kts | 55° |
| 2026-05-07 10:24 | 45.21376 | 8.83311 | 3939 ft | 257 kts | 31° |
| 2026-05-07 10:24 | 45.23067 | 8.84087 | 3976 ft | 262 kts | 3° |
| 2026-05-07 10:25 | 45.24911 | 8.83784 | 4014 ft | 268 kts | 348° |
| 2026-05-07 10:25 | 45.26748 | 8.83282 | 3997 ft | 271 kts | 349° |
| 2026-05-07 10:25 | 45.28608 | 8.82778 | 3978 ft | 271 kts | 349° |
| 2026-05-07 10:25 | 45.30442 | 8.82279 | 3983 ft | 270 kts | 349° |
| 2026-05-07 10:26 | 45.32302 | 8.81772 | 3981 ft | 270 kts | 349° |
| 2026-05-07 10:26 | 45.34129 | 8.81276 | 3982 ft | 270 kts | 349° |
| 2026-05-07 10:26 | 45.35974 | 8.80775 | 3988 ft | 269 kts | 349° |
| 2026-05-07 10:26 | 45.37763 | 8.80283 | 4003 ft | 252 kts | 349° |
| 2026-05-07 10:27 | 45.39414 | 8.79828 | 3959 ft | 235 kts | 350° |
| 2026-05-07 10:27 | 45.40987 | 8.79395 | 3949 ft | 228 kts | 349° |
| 2026-05-07 10:27 | 45.42553 | 8.78964 | 3989 ft | 232 kts | 349° |
| 2026-05-07 10:27 | 45.44167 | 8.78521 | 3996 ft | 236 kts | 349° |
| 2026-05-07 10:28 | 45.45754 | 8.78093 | 3771 ft | 230 kts | 349° |
| 2026-05-07 10:28 | 45.47320 | 8.77667 | 3482 ft | 227 kts | 349° |
| 2026-05-07 10:28 | 45.48832 | 8.77255 | 3261 ft | 216 kts | 349° |
| 2026-05-07 10:28 | 45.50277 | 8.76859 | 2949 ft | 211 kts | 350° |
| 2026-05-07 10:29 | 45.51703 | 8.76467 | 2652 ft | 205 kts | 350° |
| 2026-05-07 10:29 | 45.53081 | 8.76088 | 2371 ft | 199 kts | 350° |
| 2026-05-07 10:29 | 45.54396 | 8.75727 | 2109 ft | 184 kts | 350° |
| 2026-05-07 10:30 | 45.56723 | 8.75079 | 1636 ft | 160 kts | 350° |
| 2026-05-07 10:30 | 45.57830 | 8.74779 | 1430 ft | 162 kts | 350° |
| 2026-05-07 10:30 | 45.58944 | 8.74470 | 1241 ft | 167 kts | 350° |
| 2026-05-07 10:30 | 45.60090 | 8.74159 | 1051 ft | 165 kts | 350° |
| 2026-05-07 10:31 | 45.61177 | 8.73857 | 822 ft | 155 kts | 349° |
| 2026-05-07 10:31 | 45.62215 | 8.73568 | 712 ft | 149 kts | 350° |
| 2026-05-07 10:31 | 45.63131 | 8.73322 | 724 ft | 110 kts | 349° |
| 2026-05-07 10:31 | 45.63663 | 8.73121 | 738 ft | 65 kts | 327° |
| 2026-05-07 10:32 | 45.63881 | 8.72777 | 746 ft | 35 kts | 300° |
| 2026-05-07 10:32 | 45.63846 | 8.72589 | 747 ft | 22 kts | 162° |
| 2026-05-07 10:32 | 45.63705 | 8.72634 | 742 ft | 20 kts | 171° |
| 2026-05-07 10:32 | 45.63566 | 8.72669 | 739 ft | 20 kts | 169° |
| 2026-05-07 10:33 | 45.63437 | 8.72699 | 737 ft | 14 kts | 192° |
| 2026-05-07 10:33 | 45.63406 | 8.72599 | 739 ft | 17 kts | 258° |
| 2026-05-07 10:33 | 45.63370 | 8.72347 | 741 ft | 33 kts | 259° |
| 2026-05-07 10:33 | 45.63323 | 8.72003 | 747 ft | 23 kts | 246° |
| 2026-05-07 10:34 | 45.63197 | 8.71996 | 744 ft | 22 kts | 169° |
| 2026-05-07 10:34 | 45.63022 | 8.72011 | 741 ft | 25 kts | 211° |
| 2026-05-07 10:34 | 45.62975 | 8.71818 | 740 ft | 19 kts | 260° |
| 2026-05-07 10:34 | 45.62951 | 8.71643 | 740 ft | 16 kts | 259° |
| 2026-05-07 10:35 | 45.62932 | 8.71508 | 742 ft | 10 kts | 260° |
| 2026-05-07 10:35 | 45.62916 | 8.71431 | 742 ft | 5 kts | 221° |
| 2026-05-07 10:35 | 45.62895 | 8.71427 | 743 ft | 1 kts | 168° |
| 2026-05-07 10:35 | 45.62891 | 8.71428 | 743 ft | 0 kts | 169° |
| 2026-05-07 10:36 | 45.62844 | 8.71441 | 743 ft | 1 kts | 170° |
| 2026-05-07 10:36 | 45.62839 | 8.71443 | 744 ft | 1 kts | 169° |
| 2026-05-07 10:36 | 45.62837 | 8.71443 | 744 ft | 0 kts | 169° |